createdAt,value
2018-03-21T00:00:08.821Z,59.03
2018-03-21T00:02:38.278Z,52.87
2018-03-21T00:05:07.773Z,51.77
2018-03-21T00:07:37.233Z,59.03
2018-03-21T00:10:06.688Z,53.03
2018-03-21T00:12:36.267Z,51.60
2018-03-21T00:15:05.853Z,51.30
2018-03-21T00:17:34.993Z,58.37
2018-03-21T00:20:04.705Z,51.63
2018-03-21T00:22:34.178Z,46.87
2018-03-21T00:25:03.621Z,49.90
2018-03-21T00:27:33.112Z,55.37
2018-03-21T00:30:02.580Z,50.13
2018-03-21T00:32:32.044Z,52.57
2018-03-21T00:35:01.531Z,50.20
2018-03-21T00:37:31.010Z,56.33
2018-03-21T00:40:00.508Z,53.30
2018-03-21T00:42:30.021Z,54.97
2018-03-21T00:44:59.487Z,56.83
2018-03-21T00:47:28.960Z,48.50
2018-03-21T00:49:58.435Z,49.73
2018-03-21T00:52:27.893Z,51.47
2018-03-21T00:54:57.352Z,56.33
2018-03-21T00:57:26.854Z,61.93
2018-03-21T00:59:56.307Z,61.70
2018-03-21T01:02:25.769Z,57.13
2018-03-21T01:04:55.293Z,64.33
2018-03-21T01:07:24.947Z,57.80
2018-03-21T01:09:54.795Z,56.17
2018-03-21T01:12:24.265Z,49.13
2018-03-21T01:14:54.115Z,51.37
2018-03-21T01:17:23.651Z,49.47
2018-03-21T01:19:53.140Z,50.87
2018-03-21T01:22:22.587Z,51.77
2018-03-21T01:24:52.459Z,58.03
2018-03-21T01:27:22.206Z,57.27
2018-03-21T01:29:52.063Z,64.47
2018-03-21T01:32:21.545Z,64.83
2018-03-21T01:34:51.415Z,68.07
2018-03-21T01:37:20.699Z,69.03
2018-03-21T01:39:50.171Z,64.87
2018-03-21T01:42:19.442Z,62.33
2018-03-21T01:44:48.915Z,62.23
2018-03-21T01:47:18.399Z,63.80
2018-03-21T01:49:47.865Z,57.43
2018-03-21T01:52:17.718Z,58.87
2018-03-21T01:54:47.189Z,52.00
2018-03-21T01:57:17.043Z,49.63
2018-03-21T01:59:46.509Z,52.13
2018-03-21T02:02:16.375Z,55.83
2018-03-21T02:04:45.834Z,56.90
2018-03-21T02:07:15.697Z,62.97
2018-03-21T02:09:45.193Z,69.47
2018-03-21T02:12:14.641Z,76.17
2018-03-21T02:14:44.501Z,71.63
2018-03-21T02:17:13.977Z,82.80
2018-03-21T02:19:43.447Z,80.67
2018-03-21T02:22:12.917Z,75.37
2018-03-21T02:24:42.390Z,76.47
2018-03-21T02:27:12.250Z,78.93
2018-03-21T02:29:41.714Z,77.00
2018-03-21T02:32:11.198Z,69.90
2018-03-21T02:34:40.706Z,67.80
2018-03-21T02:37:10.369Z,75.47
2018-03-21T02:39:39.819Z,66.93
2018-03-21T02:42:09.669Z,59.53
2018-03-21T02:44:39.148Z,63.30
2018-03-21T02:47:09.003Z,71.37
2018-03-21T02:49:38.759Z,62.60
2018-03-21T02:52:08.857Z,64.47
2018-03-21T02:54:38.123Z,61.27
2018-03-21T02:57:07.586Z,55.60
2018-03-21T02:59:37.268Z,69.03
2018-03-21T03:02:06.555Z,63.77
2018-03-21T03:04:36.004Z,60.90
2018-03-21T03:07:05.677Z,65.07
2018-03-21T03:09:35.149Z,60.57
2018-03-21T03:12:04.787Z,61.13
2018-03-21T03:14:34.240Z,56.70
2018-03-21T03:17:04.095Z,46.83
2018-03-21T03:19:33.559Z,52.53
2018-03-21T03:22:03.438Z,59.97
2018-03-21T03:24:32.898Z,46.07
2018-03-21T03:27:02.370Z,45.63
2018-03-21T03:29:32.207Z,47.17
2018-03-21T03:32:01.675Z,48.30
2018-03-21T03:34:31.128Z,48.77
2018-03-21T03:37:00.426Z,50.13
2018-03-21T03:39:29.895Z,46.70
2018-03-21T03:41:59.549Z,49.97
2018-03-21T03:44:28.998Z,47.90
2018-03-21T03:46:58.448Z,55.00
2018-03-21T03:49:27.891Z,53.23
2018-03-21T03:51:57.387Z,51.90
2018-03-21T03:54:28.823Z,64.10
2018-03-21T03:56:58.295Z,45.87
2018-03-21T03:59:28.153Z,51.50
2018-03-21T04:01:57.653Z,41.23
2018-03-21T04:04:27.380Z,44.00
2018-03-21T04:06:56.862Z,40.50
2018-03-21T04:09:26.311Z,41.83
2018-03-21T04:11:55.767Z,43.67
2018-03-21T04:14:25.226Z,39.63
2018-03-21T04:16:55.080Z,36.77
2018-03-21T04:19:24.543Z,42.57
2018-03-21T04:21:54.389Z,31.03
2018-03-21T04:24:23.683Z,38.83
2018-03-21T04:26:53.132Z,36.17
2018-03-21T04:29:22.607Z,34.23
2018-03-21T04:31:52.116Z,32.80
2018-03-21T04:34:21.563Z,34.10
2018-03-21T04:36:51.042Z,29.43
2018-03-21T04:39:20.562Z,28.23
2018-03-21T04:41:50.049Z,27.40
2018-03-21T04:44:19.494Z,25.17
2018-03-21T04:46:49.249Z,23.67
2018-03-21T04:49:18.559Z,31.93
2018-03-21T04:51:48.039Z,26.77
2018-03-21T04:54:17.555Z,23.60
2018-03-21T04:56:46.869Z,30.57
2018-03-21T04:59:16.369Z,21.70
2018-03-21T05:01:45.814Z,18.33
2018-03-21T05:04:15.073Z,24.70
2018-03-21T05:06:44.348Z,24.83
2018-03-21T05:09:14.208Z,26.10
2018-03-21T05:11:43.647Z,19.60
2018-03-21T05:14:13.499Z,15.77
2018-03-21T05:16:42.968Z,17.63
2018-03-21T05:19:12.833Z,19.80
2018-03-21T05:21:42.307Z,17.93
2018-03-21T05:24:11.767Z,17.33
2018-03-21T05:26:41.221Z,21.57
2018-03-21T05:29:10.497Z,15.77
2018-03-21T05:31:40.375Z,14.40
2018-03-21T05:34:09.829Z,15.53
2018-03-21T05:36:39.695Z,13.90
2018-03-21T05:39:09.155Z,12.73
2018-03-21T05:41:38.985Z,14.23
2018-03-21T05:44:08.463Z,13.57
2018-03-21T05:46:38.315Z,13.67
2018-03-21T05:49:07.789Z,13.87
2018-03-21T05:51:38.933Z,18.07
2018-03-21T05:54:08.398Z,15.60
2018-03-21T05:56:37.851Z,13.30
2018-03-21T05:59:07.311Z,15.57
2018-03-21T06:01:36.785Z,15.20
2018-03-21T06:04:06.243Z,13.17
2018-03-21T06:06:36.098Z,13.87
2018-03-21T06:09:04.650Z,13.60
2018-03-21T06:11:34.535Z,12.53
2018-03-21T06:14:03.679Z,13.60
2018-03-21T06:16:33.135Z,11.37
2018-03-21T06:19:02.578Z,10.87
2018-03-21T06:21:32.071Z,11.33
2018-03-21T06:24:01.551Z,10.30
2018-03-21T06:26:30.994Z,9.60
2018-03-21T06:29:00.455Z,9.53
2018-03-21T06:31:29.915Z,8.50
2018-03-21T06:33:59.359Z,8.73
2018-03-21T06:36:28.844Z,11.97
2018-03-21T06:38:58.315Z,8.77
2018-03-21T06:41:27.764Z,11.43
2018-03-21T06:43:57.223Z,10.40
2018-03-21T06:46:26.379Z,9.80
2018-03-21T06:48:55.826Z,10.83
2018-03-21T06:51:25.310Z,10.30
2018-03-21T06:53:55.153Z,8.93
2018-03-21T06:56:24.609Z,11.43
2018-03-21T06:58:54.102Z,8.40
2018-03-21T07:01:23.735Z,8.70
2018-03-21T07:03:53.691Z,6.77
2018-03-21T07:06:23.173Z,7.87
2018-03-21T07:08:53.034Z,7.67
2018-03-21T07:11:22.430Z,10.33
2018-03-21T07:14:08.705Z,10.83
2018-03-21T07:16:47.750Z,8.50
2018-03-21T07:19:17.426Z,7.47
2018-03-21T07:21:47.282Z,8.07
2018-03-21T07:24:17.046Z,6.93
2018-03-21T07:26:47.717Z,8.03
2018-03-21T07:29:17.193Z,7.80
2018-03-21T07:31:46.881Z,8.40
2018-03-21T07:34:16.345Z,8.93
2018-03-21T07:36:45.809Z,8.27
2018-03-21T07:39:15.907Z,8.00
2018-03-21T07:41:45.374Z,6.93
2018-03-21T07:44:14.839Z,6.70
2018-03-21T07:46:44.309Z,6.63
2018-03-21T07:49:13.593Z,8.13
2018-03-21T07:51:42.918Z,9.53
2018-03-21T07:54:12.387Z,7.13
2018-03-21T07:56:41.891Z,7.10
2018-03-21T07:59:11.907Z,6.80
2018-03-21T08:01:41.471Z,7.80
2018-03-21T08:04:11.328Z,6.10
2018-03-21T08:06:40.804Z,5.20
2018-03-21T08:09:09.952Z,6.53
2018-03-21T08:11:39.408Z,5.80
2018-03-21T08:14:08.877Z,9.07
2018-03-21T08:16:38.325Z,5.63
2018-03-21T08:19:07.803Z,5.67
2018-03-21T08:21:37.482Z,6.80
2018-03-21T08:24:06.952Z,6.73
2018-03-21T08:26:36.436Z,8.87
2018-03-21T08:29:06.001Z,7.83
2018-03-21T08:31:36.023Z,8.10
2018-03-21T08:34:05.501Z,7.23
2018-03-21T08:36:34.988Z,11.60
2018-03-21T08:39:03.698Z,8.37
2018-03-21T08:41:33.173Z,7.40
2018-03-21T08:44:02.820Z,7.83
2018-03-21T08:46:32.282Z,9.53
2018-03-21T08:49:01.720Z,15.90
2018-03-21T08:51:31.364Z,12.10
2018-03-21T08:54:00.817Z,7.33
2018-03-21T08:56:30.290Z,6.87
2018-03-21T08:59:00.440Z,7.13
2018-03-21T09:01:29.949Z,5.17
2018-03-21T09:03:59.544Z,9.97
2018-03-21T09:06:29.321Z,7.23
2018-03-21T09:08:58.971Z,8.30
2018-03-21T09:11:28.416Z,9.13
2018-03-21T09:13:57.896Z,14.97
2018-03-21T09:16:27.374Z,7.07
2018-03-21T09:18:56.822Z,7.47
2018-03-21T09:21:26.303Z,8.67
2018-03-21T09:23:55.762Z,6.00
2018-03-21T09:26:25.876Z,8.73
2018-03-21T09:28:55.756Z,8.53
2018-03-21T09:31:25.232Z,5.90
2018-03-21T09:33:55.272Z,7.57
2018-03-21T09:36:24.724Z,12.00
2018-03-21T09:38:54.175Z,8.67
2018-03-21T09:41:23.658Z,7.67
2018-03-21T09:43:53.110Z,6.80
2018-03-21T09:46:22.573Z,9.93
2018-03-21T09:48:52.014Z,5.67
2018-03-21T09:51:21.471Z,5.63
2018-03-21T09:53:51.170Z,6.37
2018-03-21T09:56:21.032Z,9.20
2018-03-21T09:58:50.474Z,7.33
2018-03-21T10:01:20.332Z,6.13
2018-03-21T10:03:49.784Z,6.23
2018-03-21T10:06:19.281Z,6.00
2018-03-21T10:08:48.641Z,10.73
2018-03-21T10:11:18.277Z,7.80
2018-03-21T10:13:47.736Z,9.60
2018-03-21T10:16:17.184Z,8.03
2018-03-21T10:18:46.663Z,10.40
2018-03-21T10:21:16.346Z,8.57
2018-03-21T10:23:46.755Z,10.50
2018-03-21T10:26:16.410Z,6.07
2018-03-21T10:28:45.877Z,7.53
2018-03-21T10:31:15.757Z,7.00
2018-03-21T10:33:45.216Z,6.43
2018-03-21T10:36:14.671Z,7.93
2018-03-21T10:38:43.964Z,9.77
2018-03-21T10:41:13.415Z,5.70
2018-03-21T10:43:43.254Z,8.23
2018-03-21T10:46:12.704Z,7.80
2018-03-21T10:48:42.142Z,7.47
2018-03-21T10:51:11.598Z,6.83
2018-03-21T10:53:41.426Z,5.60
2018-03-21T10:56:10.898Z,7.73
2018-03-21T10:58:40.344Z,5.77
2018-03-21T11:01:15.176Z,7.57
2018-03-21T11:03:50.040Z,5.80
2018-03-21T11:06:19.526Z,4.70
2018-03-21T11:08:49.372Z,7.47
2018-03-21T11:11:18.828Z,4.83
2018-03-21T11:13:48.302Z,5.10
2018-03-21T11:16:17.767Z,4.73
2018-03-21T11:18:47.422Z,6.33
2018-03-21T11:21:16.874Z,7.50
2018-03-21T11:23:46.346Z,5.17
2018-03-21T11:26:15.812Z,6.67
2018-03-21T11:28:45.303Z,3.97
2018-03-21T11:31:14.756Z,4.53
2018-03-21T11:33:44.208Z,4.30
2018-03-21T11:36:13.647Z,5.47
2018-03-21T11:38:43.092Z,4.40
2018-03-21T11:41:12.954Z,5.97
2018-03-21T11:43:42.393Z,5.53
2018-03-21T11:46:11.726Z,4.67
2018-03-21T11:48:41.566Z,4.53
2018-03-21T11:51:11.038Z,5.47
2018-03-21T11:53:40.676Z,4.50
2018-03-21T11:56:10.122Z,7.90
2018-03-21T11:58:39.562Z,3.97
2018-03-21T12:01:09.571Z,5.07
2018-03-21T12:03:39.042Z,4.33
2018-03-21T12:06:08.508Z,4.83
2018-03-21T12:08:37.979Z,5.67
2018-03-21T12:11:07.659Z,6.77
2018-03-21T12:13:37.106Z,4.87
2018-03-21T12:16:06.581Z,4.73
2018-03-21T12:18:37.193Z,4.83
2018-03-21T12:21:06.644Z,7.13
2018-03-21T12:23:36.516Z,5.00
2018-03-21T12:26:05.998Z,6.20
2018-03-21T12:28:35.455Z,3.90
2018-03-21T12:31:05.306Z,5.97
2018-03-21T12:33:34.754Z,4.87
2018-03-21T12:36:03.982Z,3.97
2018-03-21T12:38:33.814Z,5.50
2018-03-21T12:41:03.262Z,5.57
2018-03-21T12:43:32.714Z,7.50
2018-03-21T12:46:02.174Z,5.77
2018-03-21T12:48:31.634Z,5.20
2018-03-21T12:51:01.076Z,4.70
2018-03-21T12:53:30.543Z,4.40
2018-03-21T12:56:00.056Z,5.17
2018-03-21T12:58:29.658Z,3.53
2018-03-21T13:00:59.112Z,4.27
2018-03-21T13:03:29.384Z,3.90
2018-03-21T13:05:58.834Z,5.43
2018-03-21T13:08:28.306Z,4.53
2018-03-21T13:10:57.742Z,4.03
2018-03-21T13:13:27.267Z,4.87
2018-03-21T13:15:56.714Z,5.73
2018-03-21T13:18:26.168Z,3.70
2018-03-21T13:20:55.620Z,4.87
2018-03-21T13:23:25.090Z,5.50
2018-03-21T13:25:54.947Z,4.63
2018-03-21T13:28:24.404Z,5.47
2018-03-21T13:30:53.674Z,4.57
2018-03-21T13:33:23.116Z,4.57
2018-03-21T13:35:52.982Z,3.80
2018-03-21T13:38:22.436Z,3.90
2018-03-21T13:40:52.274Z,5.80
2018-03-21T13:43:21.742Z,3.40
2018-03-21T13:45:51.604Z,4.43
2018-03-21T13:48:20.902Z,7.97
2018-03-21T13:50:50.351Z,7.47
2018-03-21T13:53:19.796Z,3.87
2018-03-21T13:55:49.238Z,3.80
2018-03-21T13:58:18.674Z,2.97
2018-03-21T14:00:48.112Z,5.40
2018-03-21T14:03:17.753Z,7.00
2018-03-21T14:05:47.205Z,4.80
2018-03-21T14:08:17.042Z,3.20
2018-03-21T14:10:46.496Z,3.63
2018-03-21T14:13:15.965Z,7.07
2018-03-21T14:15:45.456Z,2.93
2018-03-21T14:18:15.126Z,3.43
2018-03-21T14:20:44.589Z,4.90
2018-03-21T14:23:14.052Z,4.37
2018-03-21T14:25:43.896Z,4.07
2018-03-21T14:28:13.340Z,4.40
2018-03-21T14:30:42.793Z,2.63
2018-03-21T14:33:12.235Z,4.13
2018-03-21T14:35:41.404Z,5.30
2018-03-21T14:38:10.874Z,3.87
2018-03-21T14:40:40.597Z,4.80
2018-03-21T14:43:10.648Z,3.97
2018-03-21T14:45:40.099Z,3.57
2018-03-21T14:48:09.552Z,3.10
2018-03-21T14:50:39.024Z,3.97
2018-03-21T14:53:09.079Z,5.23
2018-03-21T14:55:38.518Z,4.47
2018-03-21T14:58:07.973Z,3.73
2018-03-21T15:00:37.443Z,3.90
2018-03-21T15:03:07.277Z,3.93
2018-03-21T15:05:36.754Z,4.77
2018-03-21T15:08:06.188Z,3.17
2018-03-21T15:10:35.647Z,3.93
2018-03-21T15:13:05.426Z,3.93
2018-03-21T15:15:34.685Z,3.27
2018-03-21T15:18:04.841Z,3.30
2018-03-21T15:20:34.355Z,2.93
2018-03-21T15:23:03.817Z,3.40
2018-03-21T15:25:33.655Z,3.37
2018-03-21T15:28:03.109Z,3.07
2018-03-21T15:30:32.543Z,7.33
2018-03-21T15:33:02.397Z,5.73
2018-03-21T15:35:31.904Z,3.27
2018-03-21T15:38:02.305Z,5.27
2018-03-21T15:40:31.754Z,3.97
2018-03-21T15:43:01.207Z,4.30
2018-03-21T15:45:31.076Z,4.60
2018-03-21T15:48:00.724Z,3.90
2018-03-21T15:50:30.361Z,4.17
2018-03-21T15:52:59.795Z,4.03
2018-03-21T15:55:29.115Z,3.73
2018-03-21T15:57:59.036Z,4.13
2018-03-21T16:00:28.706Z,4.50
2018-03-21T16:02:58.471Z,3.67
2018-03-21T16:05:28.345Z,5.70
2018-03-21T16:07:57.793Z,4.67
2018-03-21T16:10:27.664Z,4.13
2018-03-21T16:12:57.104Z,2.97
2018-03-21T16:15:26.951Z,2.80
2018-03-21T16:17:56.415Z,3.40
2018-03-21T16:20:25.891Z,3.50
2018-03-21T16:22:55.656Z,3.20
2018-03-21T16:25:25.281Z,3.63
2018-03-21T16:27:54.893Z,4.70
2018-03-21T16:30:24.344Z,4.97
2018-03-21T16:32:54.003Z,4.47
2018-03-21T16:35:23.441Z,2.77
2018-03-21T16:37:52.893Z,3.30
2018-03-21T16:40:22.371Z,3.77
2018-03-21T16:42:51.827Z,4.93
2018-03-21T16:45:21.281Z,3.07
2018-03-21T16:47:50.742Z,4.43
2018-03-21T16:50:20.189Z,6.50
2018-03-21T16:52:49.747Z,3.30
2018-03-21T16:55:19.356Z,7.13
2018-03-21T16:57:48.673Z,3.13
2018-03-21T17:00:18.114Z,5.47
2018-03-21T17:02:47.967Z,5.27
2018-03-21T17:05:17.627Z,6.33
2018-03-21T17:07:47.079Z,3.30
2018-03-21T17:10:16.548Z,7.10
2018-03-21T17:12:46.187Z,3.23
2018-03-21T17:15:15.353Z,4.03
2018-03-21T17:17:45.218Z,3.63
2018-03-21T17:20:14.664Z,3.70
2018-03-21T17:22:44.127Z,3.40
2018-03-21T17:25:13.605Z,4.50
2018-03-21T17:27:43.065Z,3.43
2018-03-21T17:30:12.793Z,3.70
2018-03-21T17:32:42.654Z,5.37
2018-03-21T17:35:12.089Z,4.00
2018-03-21T17:37:41.556Z,3.40
2018-03-21T17:40:11.720Z,6.23
2018-03-21T17:42:41.171Z,4.30
2018-03-21T17:45:10.615Z,2.40
2018-03-21T17:47:40.072Z,4.03
2018-03-21T17:50:09.911Z,4.30
2018-03-21T17:52:39.023Z,3.10
2018-03-21T17:55:08.515Z,4.30
2018-03-21T17:57:38.137Z,3.37
2018-03-21T18:00:07.585Z,4.20
2018-03-21T18:02:37.450Z,3.37
2018-03-21T18:05:06.895Z,4.10
2018-03-21T18:07:36.744Z,3.73
2018-03-21T18:10:06.238Z,3.00
2018-03-21T18:12:35.699Z,3.30
2018-03-21T18:15:04.827Z,3.73
2018-03-21T18:17:34.709Z,3.40
2018-03-21T18:20:04.155Z,3.27
2018-03-21T18:22:33.597Z,3.30
2018-03-21T18:25:03.057Z,4.87
2018-03-21T18:27:33.099Z,3.47
2018-03-21T18:30:02.756Z,3.47
2018-03-21T18:32:32.220Z,3.40
2018-03-21T18:35:03.238Z,4.63
2018-03-21T18:37:32.766Z,3.40
2018-03-21T18:40:02.291Z,5.20
2018-03-21T18:42:31.775Z,4.17
2018-03-21T18:45:01.245Z,3.40
2018-03-21T18:47:31.130Z,3.97
2018-03-21T18:50:00.584Z,4.53
2018-03-21T18:52:30.043Z,3.50
2018-03-21T18:54:59.475Z,4.17
2018-03-21T18:57:29.317Z,4.90
2018-03-21T18:59:58.757Z,3.53
2018-03-21T19:02:32.123Z,3.90
2018-03-21T19:05:01.339Z,6.03
2018-03-21T19:07:30.806Z,3.87
2018-03-21T19:10:00.896Z,5.00
2018-03-21T19:12:30.777Z,4.40
2018-03-21T19:15:00.231Z,4.20
2018-03-21T19:17:30.093Z,4.50
2018-03-21T19:19:59.555Z,4.10
2018-03-21T19:22:29.400Z,4.00
2018-03-21T19:24:58.864Z,4.30
2018-03-21T19:27:28.709Z,5.77
2018-03-21T19:30:46.126Z,4.33
2018-03-21T19:33:15.583Z,6.13
2018-03-21T19:35:45.050Z,4.67
2018-03-21T19:38:14.511Z,6.10
2018-03-21T19:40:44.352Z,6.03
2018-03-21T19:43:13.849Z,4.97
2018-03-21T19:45:43.425Z,7.47
2018-03-21T19:48:13.665Z,5.30
2018-03-21T19:50:43.513Z,5.03
2018-03-21T19:53:12.698Z,6.20
2018-03-21T19:55:42.151Z,6.93
2018-03-21T19:58:11.641Z,5.83
2018-03-21T20:00:41.103Z,7.70
2018-03-21T20:03:10.561Z,5.53
2018-03-21T20:05:40.057Z,8.03
2018-03-21T20:08:09.714Z,7.27
2018-03-21T20:10:39.572Z,7.60
2018-03-21T20:13:09.061Z,7.27
2018-03-21T20:15:38.518Z,8.20
2018-03-21T20:18:07.960Z,7.27
2018-03-21T20:20:37.424Z,8.60
2018-03-21T20:23:06.878Z,6.93
2018-03-21T20:25:36.548Z,8.83
2018-03-21T20:28:06.393Z,7.30
2018-03-21T20:30:36.035Z,7.37
2018-03-21T20:33:05.490Z,7.20
2018-03-21T20:35:35.544Z,7.43
2018-03-21T20:38:04.817Z,8.47
2018-03-21T20:40:34.287Z,8.00
2018-03-21T20:43:03.959Z,8.37
2018-03-21T20:45:33.423Z,8.43
2018-03-21T20:48:03.267Z,9.37
2018-03-21T20:50:32.742Z,9.47
2018-03-21T20:53:02.591Z,8.47
2018-03-21T20:55:32.048Z,8.87
2018-03-21T20:58:01.510Z,8.67
2018-03-21T21:00:30.761Z,12.40
2018-03-21T21:03:00.624Z,13.70
2018-03-21T21:05:30.084Z,15.63
2018-03-21T21:07:59.953Z,11.67
2018-03-21T21:10:29.438Z,11.60
2018-03-21T21:12:58.672Z,16.83
2018-03-21T21:15:28.124Z,12.87
2018-03-21T21:17:57.575Z,10.03
2018-03-21T21:20:27.240Z,11.37
2018-03-21T21:22:56.692Z,11.27
2018-03-21T21:25:26.158Z,9.37
2018-03-21T21:27:55.627Z,10.77
2018-03-21T21:30:25.491Z,10.40
2018-03-21T21:32:54.966Z,13.73
2018-03-21T21:35:24.422Z,10.03
2018-03-21T21:37:53.886Z,9.77
2018-03-21T21:40:23.375Z,10.33
2018-03-21T21:42:53.225Z,11.37
2018-03-21T21:45:22.684Z,8.60
2018-03-21T21:47:52.337Z,10.60
2018-03-21T21:50:21.802Z,10.43
2018-03-21T21:52:51.653Z,9.10
2018-03-21T21:55:21.291Z,9.33
2018-03-21T21:57:50.746Z,10.33
2018-03-21T22:00:20.340Z,10.90
2018-03-21T22:02:49.826Z,10.70
2018-03-21T22:05:19.674Z,12.23
2018-03-21T22:07:49.134Z,9.83
2018-03-21T22:10:18.586Z,11.43
2018-03-21T22:12:48.069Z,12.60
2018-03-21T22:15:17.579Z,11.50
2018-03-21T22:17:47.040Z,10.80
2018-03-21T22:20:16.488Z,12.27
2018-03-21T22:22:47.945Z,13.40
2018-03-21T22:25:18.050Z,12.30
2018-03-21T22:27:47.955Z,12.70
2018-03-21T22:30:17.816Z,10.70
2018-03-21T22:32:47.306Z,13.77
2018-03-21T22:35:16.764Z,11.63
2018-03-21T22:37:46.236Z,10.87
2018-03-21T22:40:15.724Z,11.67
2018-03-21T22:42:45.201Z,14.70
2018-03-21T22:45:14.682Z,10.43
2018-03-21T22:47:44.200Z,11.53
2018-03-21T22:50:14.044Z,9.47
2018-03-21T22:52:43.529Z,10.87
2018-03-21T22:55:13.405Z,10.73
2018-03-21T22:57:42.884Z,12.03
2018-03-21T23:00:12.326Z,9.80
2018-03-21T23:02:41.820Z,10.90
2018-03-21T23:05:11.302Z,9.73
2018-03-21T23:07:40.857Z,9.87
2018-03-21T23:10:10.784Z,12.00
2018-03-21T23:12:40.652Z,10.13
2018-03-21T23:15:44.648Z,10.27
2018-03-21T23:18:14.131Z,8.67
2018-03-21T23:20:43.598Z,10.60
2018-03-21T23:23:13.088Z,9.77
2018-03-21T23:25:42.582Z,10.03
2018-03-21T23:28:12.124Z,8.53
2018-03-21T23:30:41.617Z,9.70
2018-03-21T23:33:11.092Z,11.33
2018-03-21T23:35:40.590Z,9.20
2018-03-21T23:38:10.059Z,11.53
2018-03-21T23:40:39.933Z,10.77
2018-03-21T23:43:09.390Z,11.57
2018-03-21T23:45:38.843Z,8.60
2018-03-21T23:48:08.335Z,12.57
2018-03-21T23:50:37.835Z,8.63
2018-03-21T23:53:07.323Z,9.83
2018-03-21T23:55:36.816Z,9.20
2018-03-21T23:58:06.275Z,9.63
